Oslo Bulk 1 — 9V8766 — position and weather

sailwx.info

Track history (hours):
 
Tides and Currents Weather Stations Pressure Air Temp Water Temp Dewpoint Dewpoint Depression Visibility Wind Speed Wind Dir Waves Ship Positions

Oslo Bulk 1

Last reported at 2016-Aug-14 14:06 UTC. Time now 2016-Aug-26 01:31 UTC.
Position S 26°57' E 153°44'.
Warning: this ship's position is 11 days out of date.

Length 108 m; draft 6.6 m.

Type: Ship. MMSI: 564010000.

Date/timePositionNaut miles runAvg speedWind from/ knotsBaromVisibWave heightAir tempDewpointWater temp
2016-Aug-14 14:06S 26°57' E 153°44'610.0
2016-Aug-14 13:33S 27°02' E 153°44'334 9.8
2016-Aug-13 03:30S 32°32' E 152°43'1010.7
2016-Aug-13 02:34S 32°41' E 152°39'1111.1
2016-Aug-13 01:33S 32°46' E 152°26'1111.4
2016-Aug-13 00:33S 32°50' E 152°14'1111.4
2016-Aug-12 23:33S 32°54' E 152°01'1010.1
2016-Aug-12 22:33S 32°55' E 151°49'3 3.2
2016-Aug-12 21:31S 32°54' E 151°46'0 0.0
2016-Aug-12 20:31S 32°54' E 151°46'0 0.0
2016-Aug-12 19:31S 32°54' E 151°46'0 0.0
2016-Aug-12 18:28S 32°54' E 151°46'0 0.0
2016-Aug-12 17:31S 32°54' E 151°46'0 0.0
2016-Aug-12 16:28S 32°54' E 151°46'0 0.0
2016-Aug-12 15:31S 32°54' E 151°46'0 0.0
2016-Aug-12 14:31S 32°54' E 151°46'0 0.0
2016-Aug-12 13:31S 32°54' E 151°46'0 0.0
2016-Aug-12 12:28S 32°54' E 151°46'0 0.0
2016-Aug-12 11:28S 32°54' E 151°46'1 0.7
2016-Aug-12 10:27S 32°54' E 151°46'9 7.2
2016-Aug-12 09:09S 33°01' E 151°54'199 9.1
2016-Aug-11 11:18S 36°12' E 150°42'710.0
2016-Aug-11 10:33S 36°19' E 150°39'1110.6
2016-Aug-11 09:33S 36°29' E 150°35'1010.3
2016-Aug-11 08:33S 36°39' E 150°31'1010.2
2016-Aug-11 07:33S 36°49' E 150°28'1010.1
2016-Aug-11 06:33S 36°58' E 150°24'1010.1
2016-Aug-11 05:33S 37°08' E 150°20'10 9.8
2016-Aug-11 04:33S 37°17' E 150°16'1110.6
2016-Aug-11 03:33S 37°27' E 150°11'1010.3
2016-Aug-11 02:33S 37°36' E 150°04'1111.1
2016-Aug-11 01:33S 37°43' E 149°54'1212.0
2016-Aug-11 00:33S 37°51' E 149°42'1111.4
2016-Aug-10 23:33S 37°58' E 149°31'1010.3
2016-Aug-10 22:33S 38°04' E 149°21'1110.5
2016-Aug-10 21:33S 38°11' E 149°10'10 9.8
2016-Aug-10 20:34S 38°17' E 149°01'1010.4
2016-Aug-10 19:33S 38°24' E 148°51'80 9.9
2016-Aug-10 11:28S 39°02' E 147°21'1010.9
2016-Aug-10 10:33S 39°06' E 147°09'1111.2
2016-Aug-10 09:33S 39°09' E 146°55'1111.1
2016-Aug-10 08:33S 39°14' E 146°42'1110.8
2016-Aug-10 07:33S 39°16' E 146°28'1110.8
2016-Aug-10 06:34S 39°16' E 146°14'1110.7
2016-Aug-10 05:33S 39°16' E 146°01'1110.8
2016-Aug-10 04:33S 39°16' E 145°47'  
Track history (hours):
 
Tides and Currents Weather Stations Pressure Air Temp Water Temp Dewpoint Dewpoint Depression Visibility Wind Speed Wind Dir Waves Ship Positions

Oslo Bulk 1

Last reported at 2016-Aug-14 14:06 UTC. Time now 2016-Aug-26 01:31 UTC.
Position S 26°57' E 153°44'.
Warning: this ship's position is 11 days out of date.

Length 108 m; draft 6.6 m.

Type: Ship. MMSI: 564010000.

Date/timePositionNaut miles runAvg speedWind from/ knotsBaromVisibWave heightAir tempDewpointWater temp
2016-Aug-14 14:06S 26°57' E 153°44'610.0
2016-Aug-14 13:33S 27°02' E 153°44'334 9.8
2016-Aug-13 03:30S 32°32' E 152°43'1010.7
2016-Aug-13 02:34S 32°41' E 152°39'1111.1
2016-Aug-13 01:33S 32°46' E 152°26'1111.4
2016-Aug-13 00:33S 32°50' E 152°14'1111.4
2016-Aug-12 23:33S 32°54' E 152°01'1010.1
2016-Aug-12 22:33S 32°55' E 151°49'3 3.2
2016-Aug-12 21:31S 32°54' E 151°46'0 0.0
2016-Aug-12 20:31S 32°54' E 151°46'0 0.0
2016-Aug-12 19:31S 32°54' E 151°46'0 0.0
2016-Aug-12 18:28S 32°54' E 151°46'0 0.0
2016-Aug-12 17:31S 32°54' E 151°46'0 0.0
2016-Aug-12 16:28S 32°54' E 151°46'0 0.0
2016-Aug-12 15:31S 32°54' E 151°46'0 0.0
2016-Aug-12 14:31S 32°54' E 151°46'0 0.0
2016-Aug-12 13:31S 32°54' E 151°46'0 0.0
2016-Aug-12 12:28S 32°54' E 151°46'0 0.0
2016-Aug-12 11:28S 32°54' E 151°46'1 0.7
2016-Aug-12 10:27S 32°54' E 151°46'9 7.2
2016-Aug-12 09:09S 33°01' E 151°54'199 9.1
2016-Aug-11 11:18S 36°12' E 150°42'710.0
2016-Aug-11 10:33S 36°19' E 150°39'1110.6
2016-Aug-11 09:33S 36°29' E 150°35'1010.3
2016-Aug-11 08:33S 36°39' E 150°31'1010.2
2016-Aug-11 07:33S 36°49' E 150°28'1010.1
2016-Aug-11 06:33S 36°58' E 150°24'1010.1
2016-Aug-11 05:33S 37°08' E 150°20'10 9.8
2016-Aug-11 04:33S 37°17' E 150°16'1110.6
2016-Aug-11 03:33S 37°27' E 150°11'1010.3
2016-Aug-11 02:33S 37°36' E 150°04'1111.1
2016-Aug-11 01:33S 37°43' E 149°54'1212.0
2016-Aug-11 00:33S 37°51' E 149°42'1111.4
2016-Aug-10 23:33S 37°58' E 149°31'1010.3
2016-Aug-10 22:33S 38°04' E 149°21'1110.5
2016-Aug-10 21:33S 38°11' E 149°10'10 9.8
2016-Aug-10 20:34S 38°17' E 149°01'1010.4
2016-Aug-10 19:33S 38°24' E 148°51'80 9.9
2016-Aug-10 11:28S 39°02' E 147°21'1010.9
2016-Aug-10 10:33S 39°06' E 147°09'1111.2
2016-Aug-10 09:33S 39°09' E 146°55'1111.1
2016-Aug-10 08:33S 39°14' E 146°42'1110.8
2016-Aug-10 07:33S 39°16' E 146°28'1110.8
2016-Aug-10 06:34S 39°16' E 146°14'1110.7
2016-Aug-10 05:33S 39°16' E 146°01'1110.8
2016-Aug-10 04:33S 39°16' E 145°47'  

Dump ship's entire track history